Time;durP1;ratioP1;P1;durP2;ratioP2;P2;SDS_P1;SDS_P2;PMS_P1;PMS_P2;Temp;Humidity;BMP_temperature;BMP_pressure;BME280_temperature;BME280_humidity;BME280_pressure;Samples;Min_cycle;Max_cycle;Signal;HPM_P1;HPM_P2
2023/03/08 00:01:53;;;;;;;30.53;23.17;;;;;;;2.70;100.00;97882.38;5013265;28;20210;-80
2023/03/08 00:04:19;;;;;;;30.90;22.47;;;;;;;2.67;100.00;97880.13;5033996;28;20221;-82
2023/03/08 00:06:52;;;;;;;32.67;23.00;;;;;;;2.71;100.00;97893.75;5010604;28;20265;-80
2023/03/08 00:09:24;;;;;;;33.70;23.53;;;;;;;2.65;100.00;97903.34;5018382;28;20213;-79
2023/03/08 00:11:50;;;;;;;41.20;28.90;;;;;;;2.67;100.00;97898.63;5033993;28;20196;-79
2023/03/08 00:14:21;;;;;;;41.10;29.77;;;;;;;2.73;100.00;97897.78;5031021;28;20229;-80
2023/03/08 00:16:48;;;;;;;40.80;29.50;;;;;;;2.77;100.00;97901.63;5033965;28;20186;-80
2023/03/08 00:19:15;;;;;;;36.53;26.97;;;;;;;2.71;100.00;97909.63;5017501;28;20269;-79
2023/03/08 00:21:43;;;;;;;32.47;24.20;;;;;;;2.70;100.00;97900.06;5006994;28;20198;-80
2023/03/08 00:24:11;;;;;;;34.47;24.77;;;;;;;2.72;100.00;97921.78;5032361;28;20198;-81
2023/03/08 00:26:37;;;;;;;29.40;22.00;;;;;;;2.81;100.00;97916.06;5033601;28;20204;-79
2023/03/08 00:29:05;;;;;;;29.20;21.73;;;;;;;2.86;100.00;97915.41;5016857;28;20309;-81
2023/03/08 00:31:32;;;;;;;28.70;21.83;;;;;;;2.84;100.00;97918.28;5017377;28;20244;-81
2023/03/08 00:33:59;;;;;;;29.30;21.33;;;;;;;2.74;100.00;97930.34;5033404;28;20658;-81
2023/03/08 00:36:26;;;;;;;27.43;21.27;;;;;;;2.75;100.00;97930.16;5034644;28;20198;-79
2023/03/08 00:38:55;;;;;;;29.20;21.23;;;;;;;2.78;100.00;97939.47;5013915;28;20191;-80
2023/03/08 00:41:22;;;;;;;25.70;18.57;;;;;;;2.72;100.00;97940.31;5033504;28;20198;-81
2023/03/08 00:43:48;;;;;;;25.50;19.57;;;;;;;2.80;100.00;97940.09;5034934;28;20294;-79
2023/03/08 00:46:18;;;;;;;27.93;19.23;;;;;;;2.85;100.00;97934.94;5034736;28;20194;-80
2023/03/08 00:48:45;;;;;;;24.50;16.47;;;;;;;3.14;100.00;97942.31;5033529;28;20217;-79
2023/03/08 00:51:16;;;;;;;20.90;15.27;;;;;;;3.31;100.00;97942.66;5034717;28;20197;-82
2023/03/08 00:53:43;;;;;;;21.07;13.97;;;;;;;3.65;100.00;97939.50;5017022;28;20194;-80
2023/03/08 00:56:13;;;;;;;19.70;13.70;;;;;;;3.69;100.00;97946.00;5034617;28;20194;-79
2023/03/08 00:58:40;;;;;;;15.30;11.53;;;;;;;4.02;100.00;97937.75;5033404;28;20670;-80
2023/03/08 01:01:12;;;;;;;14.37;10.50;;;;;;;4.32;100.00;97944.00;5016838;28;20194;-80
2023/03/08 01:03:41;;;;;;;12.17;9.50;;;;;;;4.62;100.00;97933.44;5033574;28;20187;-80
2023/03/08 01:06:10;;;;;;;12.13;8.67;;;;;;;4.85;100.00;97925.59;5033326;28;20688;-81
2023/03/08 01:08:41;;;;;;;14.73;8.30;;;;;;;5.37;98.50;97925.06;5020223;28;20293;-81
2023/03/08 01:11:20;;;;;;;10.57;8.10;;;;;;;5.43;96.57;97924.16;5034829;28;20202;-81
2023/03/08 01:13:48;;;;;;;10.33;8.10;;;;;;;5.64;92.90;97928.94;5032963;28;20237;-80
2023/03/08 01:16:19;;;;;;;11.23;7.93;;;;;;;5.85;91.80;97927.56;5033362;28;20205;-80
2023/03/08 01:18:48;;;;;;;9.57;7.53;;;;;;;5.74;91.18;97924.66;5034072;28;20186;-77
2023/03/08 01:21:19;;;;;;;10.00;8.10;;;;;;;5.85;91.56;97931.03;5026014;28;20186;-79
2023/03/08 01:23:47;;;;;;;10.13;8.40;;;;;;;5.73;91.90;97925.72;5018816;28;20724;-80
2023/03/08 01:26:18;;;;;;;12.33;8.90;;;;;;;5.76;92.28;97927.91;5033325;28;20217;-79
2023/03/08 01:28:45;;;;;;;11.73;8.50;;;;;;;5.76;92.32;97938.56;5031668;28;20700;-79
2023/03/08 01:31:21;;;;;;;11.70;8.57;;;;;;;5.82;92.97;97936.00;5033849;28;20194;-80
2023/03/08 01:33:49;;;;;;;11.73;9.03;;;;;;;5.65;93.61;97933.22;5026390;28;20194;-81
2023/03/08 01:36:18;;;;;;;13.27;9.70;;;;;;;5.60;94.23;97925.91;5033779;28;20228;-79
2023/03/08 01:38:46;;;;;;;12.13;10.03;;;;;;;5.62;94.61;97933.69;5032394;28;20193;-78
2023/03/08 01:41:21;;;;;;;13.50;9.50;;;;;;;5.53;95.31;97932.38;5032174;28;20252;-79
2023/03/08 01:43:53;;;;;;;11.97;9.83;;;;;;;5.47;96.81;97935.94;5032233;28;20194;-77
2023/03/08 01:46:30;;;;;;;13.37;9.73;;;;;;;5.41;96.82;97936.88;5033336;28;20659;-79
2023/03/08 01:49:09;;;;;;;11.60;9.37;;;;;;;5.40;97.07;97937.91;5027280;28;20209;-80
2023/03/08 01:51:55;;;;;;;12.07;9.50;;;;;;;5.26;98.01;97930.16;5033419;28;20194;-79
2023/03/08 01:54:26;;;;;;;12.37;9.33;;;;;;;5.22;98.21;97931.63;5016202;28;20244;-80
2023/03/08 01:57:10;;;;;;;12.77;10.10;;;;;;;5.23;98.02;97935.06;5015848;28;20243;-78
2023/03/08 01:59:47;;;;;;;11.63;9.63;;;;;;;5.20;97.14;97939.00;5016789;28;20690;-80
2023/03/08 02:02:21;;;;;;;11.70;9.73;;;;;;;5.16;97.75;97945.81;5032090;28;20646;-80
2023/03/08 02:04:52;;;;;;;10.83;9.13;;;;;;;5.12;98.57;97947.28;5033130;28;20224;-79
2023/03/08 02:07:18;;;;;;;14.57;9.57;;;;;;;5.08;99.51;97943.47;5015595;28;20289;-78
2023/03/08 02:09:47;;;;;;;13.37;10.03;;;;;;;5.04;99.43;97939.63;5031695;28;20218;-81
2023/03/08 02:12:17;;;;;;;11.33;9.30;;;;;;;5.00;98.92;97938.47;5015414;28;20598;-79
2023/03/08 02:14:48;;;;;;;11.13;8.60;;;;;;;5.03;98.20;97942.53;5031900;28;20237;-81
2023/03/08 02:17:15;;;;;;;13.13;8.70;;;;;;;5.01;97.78;97934.78;5028579;28;20194;-79
2023/03/08 02:19:51;;;;;;;13.03;9.23;;;;;;;4.97;97.33;97943.41;5031020;28;20209;-79
2023/03/08 02:22:20;;;;;;;11.23;9.10;;;;;;;4.94;97.46;97939.38;5016653;28;20575;-78
2023/03/08 02:24:47;;;;;;;12.13;9.47;;;;;;;4.92;97.76;97937.97;5013736;28;20186;-79
2023/03/08 02:27:20;;;;;;;13.03;9.57;;;;;;;4.90;97.90;97950.66;5031255;28;20191;-79
2023/03/08 02:29:49;;;;;;;11.73;8.93;;;;;;;4.84;98.01;97947.88;5030147;28;20249;-81
2023/03/08 02:32:18;;;;;;;11.07;8.97;;;;;;;4.80;98.67;97961.81;5029240;28;20282;-78
2023/03/08 02:34:45;;;;;;;12.00;9.37;;;;;;;4.83;99.39;97951.56;5015118;28;20198;-77
2023/03/08 02:37:14;;;;;;;10.97;8.60;;;;;;;4.74;99.45;97952.06;5032935;28;20531;-78
2023/03/08 02:39:42;;;;;;;10.03;8.93;;;;;;;4.70;99.93;97942.94;5030887;28;20197;-79
2023/03/08 02:42:11;;;;;;;11.33;8.80;;;;;;;4.67;100.00;97961.94;5028084;28;20253;-79
2023/03/08 02:44:41;;;;;;;10.37;8.83;;;;;;;4.58;100.00;97968.56;5032285;28;20712;-78
2023/03/08 02:47:09;;;;;;;11.73;9.43;;;;;;;4.54;100.00;97954.94;5032521;28;20193;-81
2023/03/08 02:49:41;;;;;;;12.90;9.37;;;;;;;4.52;100.00;97974.78;5015486;28;20306;-80
2023/03/08 02:52:09;;;;;;;12.13;8.60;;;;;;;4.61;100.00;97971.63;5030435;28;20284;-78
2023/03/08 02:54:37;;;;;;;12.00;9.57;;;;;;;4.65;99.25;97969.31;5031153;28;20198;-80
2023/03/08 02:57:08;;;;;;;12.33;9.33;;;;;;;4.71;98.72;97974.53;5031286;28;20675;-79
2023/03/08 02:59:36;;;;;;;10.80;7.90;;;;;;;5.07;93.18;97968.41;5015561;28;20263;-80
2023/03/08 03:02:05;;;;;;;8.70;6.90;;;;;;;5.28;91.15;97983.00;5034308;28;20217;-79
2023/03/08 03:04:32;;;;;;;9.37;6.80;;;;;;;5.43;89.74;97986.06;5015137;28;20198;-80
2023/03/08 03:06:59;;;;;;;15.10;7.03;;;;;;;5.63;86.68;97986.59;5009664;28;20226;-78
2023/03/08 03:09:33;;;;;;;10.07;6.60;;;;;;;5.59;87.42;97998.72;4999775;28;20214;-78
2023/03/08 03:12:12;;;;;;;;;;;;;;;;;;;;;
2023/03/08 03:14:41;;;;;;;9.60;6.90;;;;;;;6.15;83.19;98005.44;5024695;28;20202;-78
2023/03/08 03:17:11;;;;;;;8.73;6.43;;;;;;;5.94;83.43;97998.81;5030730;28;20193;-80
2023/03/08 03:19:38;;;;;;;10.37;7.20;;;;;;;5.99;82.37;98003.44;5030837;28;20205;-80
2023/03/08 03:22:06;;;;;;;7.70;6.53;;;;;;;6.00;82.51;98008.53;5028177;28;20200;-83
2023/03/08 03:24:33;;;;;;;8.10;6.70;;;;;;;6.01;82.13;98002.19;5029108;28;20190;-79
2023/03/08 03:27:04;;;;;;;8.87;6.57;;;;;;;5.93;81.87;98007.00;5020575;28;20237;-79
2023/03/08 03:29:36;;;;;;;9.37;6.90;;;;;;;5.93;82.12;98007.81;5030544;28;20703;-79
2023/03/08 03:32:25;;;;;;;9.70;7.10;;;;;;;5.94;81.35;98016.59;5029651;28;20610;-77
2023/03/08 03:34:53;;;;;;;8.47;6.77;;;;;;;6.00;80.70;98021.00;5025370;28;20223;-79
2023/03/08 03:37:23;;;;;;;8.33;6.77;;;;;;;5.99;80.10;98030.81;5029814;28;20264;-80
2023/03/08 03:39:52;;;;;;;8.93;6.13;;;;;;;6.03;80.09;98026.66;5027840;28;20194;-78
2023/03/08 03:42:23;;;;;;;8.53;6.80;;;;;;;5.98;80.17;98025.72;5010466;28;20194;-79
2023/03/08 03:45:02;;;;;;;7.83;6.50;;;;;;;6.05;79.12;98021.13;5022680;28;20198;-80
2023/03/08 03:47:29;;;;;;;7.40;6.57;;;;;;;5.97;79.04;98034.75;5030867;28;20194;-79
2023/03/08 03:49:59;;;;;;;7.17;5.73;;;;;;;5.91;79.41;98033.81;5026608;28;20762;-79
2023/03/08 03:52:30;;;;;;;8.27;7.00;;;;;;;5.88;79.01;98044.09;5028857;28;20206;-77
2023/03/08 03:55:01;;;;;;;8.87;6.90;;;;;;;6.19;76.75;98036.63;5029250;28;20202;-79
2023/03/08 03:57:31;;;;;;;9.33;6.77;;;;;;;6.32;77.13;98042.78;5011638;28;20192;-78
2023/03/08 04:00:01;;;;;;;9.30;6.80;;;;;;;6.31;76.98;98033.16;5030993;28;20254;-79
2023/03/08 04:02:30;;;;;;;8.40;7.07;;;;;;;6.34;76.49;98028.22;5031164;28;20206;-80
2023/03/08 04:04:58;;;;;;;9.60;7.00;;;;;;;6.36;76.67;98033.28;5018223;28;20209;-80
2023/03/08 04:07:29;;;;;;;8.53;7.03;;;;;;;6.39;76.55;98027.53;5034333;28;20233;-79
2023/03/08 04:09:59;;;;;;;8.80;7.47;;;;;;;6.35;76.80;98021.00;5004982;28;20278;-79
2023/03/08 04:12:30;;;;;;;9.73;7.23;;;;;;;6.53;76.04;98026.25;5031848;28;20292;-80
2023/03/08 04:14:59;;;;;;;9.80;7.20;;;;;;;6.35;76.74;98029.00;5022915;28;20194;-79
2023/03/08 04:17:29;;;;;;;9.33;7.43;;;;;;;6.58;76.02;98031.66;5048062;28;20205;-80
2023/03/08 04:19:55;;;;;;;11.20;7.53;;;;;;;6.39;76.69;98028.31;5016012;28;20210;-79
2023/03/08 04:22:28;;;;;;;9.87;6.77;;;;;;;6.44;77.20;98038.28;5033253;28;20221;-81
2023/03/08 04:25:11;;;;;;;8.93;6.83;;;;;;;6.42;76.90;98041.16;5033309;28;20198;-79
2023/03/08 04:27:46;;;;;;;9.43;7.40;;;;;;;6.35;76.11;98040.44;5014779;28;20585;-81
2023/03/08 04:30:14;;;;;;;10.90;7.17;;;;;;;6.38;76.36;98048.00;5033562;28;20214;-79
2023/03/08 04:32:45;;;;;;;9.50;7.67;;;;;;;6.36;76.22;98046.59;5017530;28;20619;-80
2023/03/08 04:35:13;;;;;;;11.07;7.20;;;;;;;6.51;74.57;98037.09;5034903;28;20187;-79
2023/03/08 04:37:45;;;;;;;10.13;7.20;;;;;;;6.43;74.89;98032.16;5033979;28;20218;-78
2023/03/08 04:40:18;;;;;;;10.20;7.63;;;;;;;6.51;74.53;98030.97;5034501;28;20182;-80
2023/03/08 04:42:52;;;;;;;11.43;7.47;;;;;;;6.56;74.98;98015.13;5018343;28;20216;-81
2023/03/08 04:45:26;;;;;;;8.60;7.07;;;;;;;6.53;74.32;98011.06;5033517;28;20201;-80
2023/03/08 04:48:00;;;;;;;9.77;6.63;;;;;;;6.50;74.42;98014.19;5033654;28;20289;-78
2023/03/08 04:50:30;;;;;;;8.87;6.73;;;;;;;6.58;74.31;98011.19;5033150;28;20589;-80
2023/03/08 04:52:57;;;;;;;10.87;7.20;;;;;;;6.38;74.84;98023.22;5020938;28;20202;-80
2023/03/08 04:55:24;;;;;;;10.30;7.13;;;;;;;6.48;74.50;98020.81;5023662;28;20743;-81
2023/03/08 04:57:56;;;;;;;10.63;7.30;;;;;;;6.49;74.69;98022.41;5017546;28;20582;-77
2023/03/08 05:00:28;;;;;;;8.33;6.93;;;;;;;6.41;74.67;98014.78;5017667;28;20198;-80
2023/03/08 05:02:55;;;;;;;9.33;6.73;;;;;;;6.51;74.47;98017.66;5032904;28;20240;-79
2023/03/08 05:05:29;;;;;;;8.57;6.77;;;;;;;6.43;74.23;98013.53;5032899;28;20285;-79
2023/03/08 05:08:04;;;;;;;9.43;6.57;;;;;;;6.39;74.54;98019.53;5019778;28;20614;-79
2023/03/08 05:10:34;;;;;;;14.87;9.20;;;;;;;6.27;74.42;98016.06;5032608;28;20217;-79
2023/03/08 05:13:02;;;;;;;9.47;6.67;;;;;;;6.42;73.46;98017.22;5011900;28;20234;-79
2023/03/08 05:15:29;;;;;;;8.47;6.67;;;;;;;6.25;73.90;98020.81;5023821;28;20202;-80
2023/03/08 05:18:21;;;;;;;9.07;6.43;;;;;;;6.24;73.73;98027.16;5022511;28;20287;-79
2023/03/08 05:20:59;;;;;;;7.63;6.20;;;;;;;6.29;73.82;98024.63;5018265;28;20226;-80
2023/03/08 05:23:29;;;;;;;7.73;6.37;;;;;;;6.44;73.13;98015.13;5010143;28;20210;-78
2023/03/08 05:26:00;;;;;;;8.17;6.47;;;;;;;6.31;73.38;98022.53;5026272;28;20677;-79
2023/03/08 05:28:30;;;;;;;8.33;6.87;;;;;;;6.31;73.39;98027.84;5009371;28;20194;-78
2023/03/08 05:31:14;;;;;;;8.17;6.13;;;;;;;6.43;72.37;98024.16;5017026;28;20226;-78
2023/03/08 05:33:42;;;;;;;7.97;6.47;;;;;;;6.26;72.63;98020.56;5031638;28;20202;-78
2023/03/08 05:36:17;;;;;;;11.00;7.23;;;;;;;6.26;72.52;98030.38;5032695;28;20198;-79
2023/03/08 05:38:44;;;;;;;11.60;6.87;;;;;;;6.25;72.95;98024.28;5024048;28;20228;-79
2023/03/08 05:41:15;;;;;;;21.80;11.27;;;;;;;6.32;72.46;98021.50;5020195;28;20198;-80
2023/03/08 05:43:48;;;;;;;16.57;9.97;;;;;;;6.29;72.48;98025.44;5016720;28;20194;-78
2023/03/08 05:46:16;;;;;;;17.87;9.63;;;;;;;6.25;71.93;98020.81;5032683;28;20281;-80
2023/03/08 05:48:47;;;;;;;15.50;8.10;;;;;;;6.30;72.08;98023.59;5016439;28;20205;-79
2023/03/08 05:51:19;;;;;;;12.47;6.70;;;;;;;6.29;72.33;98028.09;5032413;28;20214;-79
2023/03/08 05:53:47;;;;;;;8.70;6.33;;;;;;;6.57;71.87;98022.06;5032010;28;20198;-78
2023/03/08 05:56:18;;;;;;;11.80;7.17;;;;;;;6.45;71.90;98019.41;5032597;28;20240;-78
2023/03/08 05:59:01;;;;;;;7.77;5.67;;;;;;;6.38;72.46;98026.72;5001473;28;20202;-80
2023/03/08 06:01:31;;;;;;;7.57;5.83;;;;;;;6.49;72.32;98027.72;5026701;28;20187;-79
2023/03/08 06:04:08;;;;;;;8.17;5.53;;;;;;;6.48;72.35;98018.97;5012624;28;20220;-78
2023/03/08 06:06:39;;;;;;;10.33;6.37;;;;;;;6.40;72.73;98031.78;5030887;28;20256;-78
2023/03/08 06:09:10;;;;;;;7.83;5.90;;;;;;;6.52;72.30;98038.75;5030746;28;20233;-79
2023/03/08 06:11:39;;;;;;;6.27;5.63;;;;;;;6.41;72.48;98049.38;5030355;28;20214;-79
2023/03/08 06:14:10;;;;;;;8.57;5.70;;;;;;;6.38;72.63;98063.94;5015875;28;20232;-78
2023/03/08 06:16:39;;;;;;;7.33;6.33;;;;;;;6.52;72.37;98065.34;5030878;28;20194;-79
2023/03/08 06:19:09;;;;;;;7.77;5.73;;;;;;;6.28;72.80;98066.38;5031114;28;20187;-79
2023/03/08 06:21:39;;;;;;;7.70;5.77;;;;;;;6.28;73.59;98077.00;5031653;28;20205;-78
2023/03/08 06:24:05;;;;;;;6.27;5.47;;;;;;;6.27;73.37;98075.38;5032336;28;20190;-77
2023/03/08 06:26:37;;;;;;;7.97;5.70;;;;;;;6.35;73.10;98076.88;5031668;28;20198;-79
2023/03/08 06:29:07;;;;;;;7.60;5.40;;;;;;;6.35;72.67;98076.88;5031621;28;20221;-78
2023/03/08 06:31:36;;;;;;;6.50;4.87;;;;;;;6.31;72.85;98073.88;5031713;28;20205;-79
2023/03/08 06:34:05;;;;;;;8.33;5.47;;;;;;;6.31;72.46;98073.88;5030642;28;20205;-78
2023/03/08 06:36:32;;;;;;;7.23;5.07;;;;;;;6.30;72.50;98079.44;5015772;28;20203;-78
2023/03/08 06:39:09;;;;;;;7.27;5.60;;;;;;;6.57;71.86;98086.75;5016829;28;20193;-79
2023/03/08 06:41:39;;;;;;;7.13;4.83;;;;;;;6.65;71.77;98088.25;5037271;28;20240;-78
2023/03/08 06:44:08;;;;;;;6.87;5.27;;;;;;;6.73;70.56;98095.06;4999806;28;20207;-79
2023/03/08 06:46:36;;;;;;;6.50;5.37;;;;;;;6.91;71.07;98093.09;5015155;28;20194;-80
2023/03/08 06:49:03;;;;;;;8.03;5.60;;;;;;;7.15;70.43;98098.38;5031420;28;20230;-80
2023/03/08 06:51:34;;;;;;;6.10;5.30;;;;;;;7.49;69.43;98092.97;5038506;28;20638;-79
2023/03/08 06:54:03;;;;;;;7.60;5.23;;;;;;;7.68;68.90;98095.44;5031588;28;20690;-79
2023/03/08 06:56:31;;;;;;;7.03;5.10;;;;;;;7.90;68.63;98093.72;5031299;28;20209;-79
2023/03/08 06:59:00;;;;;;;7.23;5.27;;;;;;;8.06;67.96;98095.63;5026995;28;20240;-80
2023/03/08 07:01:33;;;;;;;7.77;5.33;;;;;;;8.15;66.71;98096.84;5011499;28;20267;-80
2023/03/08 07:03:59;;;;;;;7.03;5.10;;;;;;;8.21;66.92;98103.09;5029438;28;20191;-81
2023/03/08 07:06:28;;;;;;;8.13;5.10;;;;;;;8.27;67.16;98102.91;5026827;28;20219;-79
2023/03/08 07:08:55;;;;;;;7.73;5.40;;;;;;;8.36;67.09;98103.34;5013719;28;20234;-79
2023/03/08 07:11:26;;;;;;;7.90;5.63;;;;;;;8.42;67.16;98113.06;5031909;28;20213;-79
2023/03/08 07:13:54;;;;;;;7.43;5.40;;;;;;;8.64;66.70;98113.94;5030651;28;20234;-79
2023/03/08 07:16:23;;;;;;;6.83;5.20;;;;;;;8.75;66.54;98105.03;5030722;28;20186;-78
2023/03/08 07:18:51;;;;;;;7.67;5.43;;;;;;;8.85;66.15;98109.72;5032048;28;20191;-78
2023/03/08 07:21:18;;;;;;;7.73;5.30;;;;;;;9.01;65.59;98106.22;5030513;28;20194;-78
2023/03/08 07:23:45;;;;;;;8.00;5.83;;;;;;;9.12;64.78;98107.16;5029685;28;20687;-78
2023/03/08 07:26:14;;;;;;;8.47;5.70;;;;;;;9.15;64.22;98112.81;5028059;28;20204;-78
2023/03/08 07:28:47;;;;;;;8.07;5.70;;;;;;;9.01;64.26;98108.88;5027890;28;20195;-79
2023/03/08 07:31:20;;;;;;;7.60;5.63;;;;;;;8.90;64.19;98111.66;5028295;28;20206;-80
2023/03/08 07:33:51;;;;;;;6.80;5.60;;;;;;;8.95;64.20;98117.91;5027281;28;20214;-78
2023/03/08 07:36:17;;;;;;;7.53;5.80;;;;;;;9.05;64.47;98109.22;5030532;28;20738;-80
2023/03/08 07:38:45;;;;;;;7.13;5.87;;;;;;;9.21;64.14;98098.47;5033121;28;20193;-78
2023/03/08 07:41:15;;;;;;;8.10;6.40;;;;;;;9.27;64.77;98104.69;5034229;28;20205;-79
2023/03/08 07:43:43;;;;;;;8.00;6.03;;;;;;;9.30;64.44;98096.16;5032762;28;20281;-79
2023/03/08 07:46:18;;;;;;;7.47;5.63;;;;;;;9.44;63.88;98105.44;5035755;28;20310;-79
2023/03/08 07:48:52;;;;;;;7.33;5.53;;;;;;;9.52;63.02;98098.84;5024685;28;20198;-78
2023/03/08 07:51:29;;;;;;;6.63;5.57;;;;;;;9.54;62.73;98094.88;5035110;28;20210;-78
2023/03/08 07:54:03;;;;;;;6.87;5.63;;;;;;;9.76;62.85;98094.84;5030287;28;20724;-78
2023/03/08 07:56:35;;;;;;;7.03;5.93;;;;;;;9.87;62.82;98098.44;5031719;28;20197;-79
2023/03/08 07:59:08;;;;;;;6.70;5.23;;;;;;;9.93;61.86;98097.44;5033429;28;20192;-78
2023/03/08 08:01:37;;;;;;;7.90;5.40;;;;;;;10.12;62.47;98094.13;5035485;28;20243;-78
2023/03/08 08:04:16;;;;;;;7.77;5.53;;;;;;;10.38;62.26;98087.19;5038048;28;20190;-78
2023/03/08 08:06:48;;;;;;;6.23;5.50;;;;;;;10.60;60.67;98097.78;5018522;28;20268;-77
2023/03/08 08:09:20;;;;;;;7.23;5.53;;;;;;;10.80;60.57;98087.22;5017675;28;20194;-80
2023/03/08 08:11:50;;;;;;;6.67;5.60;;;;;;;10.93;59.75;98081.41;5034723;28;20206;-77
2023/03/08 08:14:16;;;;;;;7.53;5.77;;;;;;;10.94;59.25;98079.53;5034565;28;20728;-81
2023/03/08 08:16:45;;;;;;;7.37;6.17;;;;;;;11.09;58.55;98076.94;5034839;28;20632;-78
2023/03/08 08:19:13;;;;;;;8.10;5.67;;;;;;;11.12;58.69;98076.41;5033730;28;20204;-79
2023/03/08 08:21:43;;;;;;;6.87;5.57;;;;;;;11.26;57.17;98069.50;5017820;28;20328;-78
2023/03/08 08:24:14;;;;;;;7.13;5.80;;;;;;;11.42;57.07;98070.38;5033556;28;20189;-77
2023/03/08 08:26:43;;;;;;;6.90;5.60;;;;;;;11.51;56.75;98074.19;5034595;28;20186;-78
2023/03/08 08:29:13;;;;;;;6.70;5.30;;;;;;;11.73;56.31;98068.63;5034723;28;20272;-78
2023/03/08 08:31:40;;;;;;;6.63;4.93;;;;;;;11.97;55.38;98056.34;5016843;28;20281;-79
2023/03/08 08:34:07;;;;;;;7.70;4.90;;;;;;;12.17;55.73;98053.69;5034615;28;20193;-78
2023/03/08 08:36:35;;;;;;;6.00;5.40;;;;;;;12.22;55.16;98045.63;5034272;28;20659;-79
2023/03/08 08:39:04;;;;;;;5.70;4.80;;;;;;;12.40;54.54;98043.47;5033338;28;20198;-79
2023/03/08 08:41:33;;;;;;;5.70;5.03;;;;;;;12.62;53.96;98044.00;5035577;28;20198;-80
2023/03/08 08:44:04;;;;;;;6.53;4.80;;;;;;;12.71;54.20;98031.63;5030447;28;20194;-79
2023/03/08 08:46:33;;;;;;;6.33;5.10;;;;;;;12.92;53.41;98030.50;5016888;28;20194;-78
2023/03/08 08:49:00;;;;;;;6.00;4.43;;;;;;;13.11;52.28;98030.75;5030591;28;20196;-78
2023/03/08 08:51:29;;;;;;;5.00;4.50;;;;;;;13.34;51.73;98035.50;5032722;28;20217;-77
2023/03/08 08:53:56;;;;;;;5.70;5.10;;;;;;;13.42;50.90;98034.91;5016212;28;20202;-78
2023/03/08 08:56:25;;;;;;;4.97;4.47;;;;;;;13.56;51.29;98030.53;5034087;28;20225;-78
2023/03/08 08:59:00;;;;;;;7.50;6.67;;;;;;;13.66;50.44;98029.69;5032549;28;20267;-77
2023/03/08 09:01:34;;;;;;;6.73;5.37;;;;;;;13.76;50.00;98029.63;5034012;28;20190;-78
2023/03/08 09:04:03;;;;;;;9.60;8.70;;;;;;;13.81;49.43;98028.78;5032923;28;20252;-78
2023/03/08 09:06:31;;;;;;;27.87;24.93;;;;;;;13.99;49.59;98033.53;5032758;28;20225;-78
2023/03/08 09:08:58;;;;;;;10.00;7.60;;;;;;;14.23;48.99;98055.94;5033954;28;20234;-78
2023/03/08 09:11:26;;;;;;;5.70;5.20;;;;;;;14.39;48.10;98067.44;5032654;28;20239;-78
2023/03/08 09:13:53;;;;;;;5.30;4.80;;;;;;;14.54;47.65;98075.41;5033403;28;20237;-77
2023/03/08 09:16:23;;;;;;;5.63;4.83;;;;;;;14.70;47.49;98081.44;5034088;28;20627;-78
2023/03/08 09:18:52;;;;;;;5.13;4.63;;;;;;;14.91;46.83;98081.00;5032680;28;20187;-79
2023/03/08 09:21:25;;;;;;;7.20;5.10;;;;;;;14.95;46.05;98068.53;5033644;28;20192;-78
2023/03/08 09:23:52;;;;;;;6.20;5.43;;;;;;;15.04;45.79;98062.53;5032465;28;20243;-78
2023/03/08 09:26:22;;;;;;;6.13;5.23;;;;;;;15.00;46.00;98067.69;5032501;28;20192;-78
2023/03/08 09:28:52;;;;;;;7.53;5.87;;;;;;;14.95;46.46;98063.16;5032140;28;20193;-78
2023/03/08 09:31:20;;;;;;;7.07;5.90;;;;;;;14.89;46.48;98056.19;5032401;28;20215;-78
2023/03/08 09:33:50;;;;;;;6.87;6.20;;;;;;;14.84;46.49;98042.75;5033549;28;20196;-79
2023/03/08 09:36:18;;;;;;;6.90;6.20;;;;;;;14.89;46.49;98044.59;5035083;28;20230;-80
2023/03/08 09:39:07;;;;;;;6.90;6.07;;;;;;;14.92;46.16;98036.78;5041003;28;20221;-79
2023/03/08 09:41:43;;;;;;;8.00;6.43;;;;;;;15.05;46.54;98034.47;5035311;28;20695;-79
2023/03/08 09:44:17;;;;;;;7.20;6.27;;;;;;;15.12;46.14;98029.53;5036533;28;20224;-78
2023/03/08 09:47:05;;;;;;;7.80;6.97;;;;;;;15.06;46.10;98034.19;5041212;28;20230;-78
2023/03/08 09:49:35;;;;;;;7.80;6.67;;;;;;;14.88;46.45;98041.09;5032868;28;20204;-79
2023/03/08 09:52:11;;;;;;;8.07;6.87;;;;;;;14.86;46.36;98029.00;5024145;28;20262;-79
2023/03/08 09:54:41;;;;;;;8.37;7.30;;;;;;;14.76;46.69;98023.72;5035452;28;20194;-77
2023/03/08 09:57:20;;;;;;;8.93;8.03;;;;;;;14.88;46.90;98024.16;5035857;28;20747;-79
2023/03/08 09:59:57;;;;;;;10.17;9.17;;;;;;;14.99;47.13;98023.75;5032742;28;20283;-78
2023/03/08 10:02:58;;;;;;;9.40;8.43;;;;;;;14.98;47.10;98016.72;5029808;28;20209;-78
2023/03/08 10:05:40;;;;;;;9.30;8.40;;;;;;;15.06;47.30;98007.22;5023164;28;20206;-78
2023/03/08 10:08:31;;;;;;;10.27;8.40;;;;;;;15.06;47.29;97998.31;5015410;28;20208;-79
2023/03/08 10:11:11;;;;;;;10.13;8.83;;;;;;;15.01;47.62;97999.19;5031324;28;20205;-78
2023/03/08 10:13:42;;;;;;;9.87;8.87;;;;;;;14.81;48.49;97984.03;5014734;28;20237;-79
2023/03/08 10:16:21;;;;;;;10.53;9.20;;;;;;;14.74;48.65;97983.59;5012832;28;20216;-78
2023/03/08 10:19:21;;;;;;;10.50;9.40;;;;;;;14.60;49.00;97984.53;5030002;28;20192;-78
2023/03/08 10:21:50;;;;;;;12.93;10.93;;;;;;;14.32;48.97;97978.84;5033989;28;20194;-79
2023/03/08 10:24:30;;;;;;;12.87;9.90;;;;;;;14.14;48.84;97984.13;5020728;28;20195;-78
2023/03/08 10:27:08;;;;;;;12.10;9.50;;;;;;;14.06;49.40;97975.56;5035733;28;20199;-79
2023/03/08 10:29:35;;;;;;;11.40;9.43;;;;;;;14.04;49.77;97969.63;5035148;28;20218;-78
2023/03/08 10:32:02;;;;;;;12.17;10.63;;;;;;;13.88;50.21;97970.03;5035820;28;20265;-78
2023/03/08 10:34:31;;;;;;;11.47;9.97;;;;;;;13.92;51.12;97969.22;5031448;28;22031;-78
2023/03/08 10:37:01;;;;;;;12.63;10.27;;;;;;;13.92;51.43;97968.41;5034355;28;20195;-78
2023/03/08 10:39:30;;;;;;;14.30;11.03;;;;;;;13.89;51.32;97955.50;5014347;28;20538;-78
2023/03/08 10:41:59;;;;;;;12.47;10.40;;;;;;;13.86;50.96;97967.63;5035866;28;20699;-79
2023/03/08 10:44:39;;;;;;;24.60;19.23;;;;;;;13.78;51.21;97964.72;5024710;28;20216;-78
2023/03/08 10:47:35;;;;;;;25.10;20.67;;;;;;;13.66;51.49;97967.78;5032574;28;20193;-77
2023/03/08 10:50:08;;;;;;;16.07;13.27;;;;;;;13.53;51.68;97963.81;5030430;28;20202;-78
2023/03/08 10:52:41;;;;;;;12.33;10.90;;;;;;;13.54;51.57;97954.66;5031228;28;20220;-78
2023/03/08 10:55:22;;;;;;;13.07;11.47;;;;;;;13.62;51.40;97937.16;5016992;28;20285;-79
2023/03/08 10:57:59;;;;;;;12.97;11.13;;;;;;;13.87;51.10;97936.13;4999925;28;20205;-78
2023/03/08 11:00:31;;;;;;;13.67;10.97;;;;;;;13.88;50.86;97921.59;5033269;28;20193;-78
2023/03/08 11:03:09;;;;;;;15.07;11.50;;;;;;;14.06;50.68;97902.03;5030259;28;20614;-78
2023/03/08 11:05:36;;;;;;;13.67;11.30;;;;;;;14.16;50.12;97912.72;5030953;28;20189;-78
2023/03/08 11:08:17;;;;;;;13.87;10.67;;;;;;;14.17;49.88;97908.16;5034006;28;20194;-78
2023/03/08 11:10:44;;;;;;;12.23;10.63;;;;;;;14.41;49.53;97895.53;5030381;28;20202;-78
2023/03/08 11:13:30;;;;;;;13.37;10.60;;;;;;;14.54;49.32;97884.88;4996741;28;1223578;-78
2023/03/08 11:16:19;;;;;;;16.00;12.87;;;;;;;14.64;49.59;97870.50;5018675;28;20216;-78
2023/03/08 11:19:05;;;;;;;13.80;10.37;;;;;;;14.70;49.33;97855.84;5039815;28;20194;-79
2023/03/08 11:21:42;;;;;;;13.80;11.57;;;;;;;14.69;49.53;97856.94;5039964;28;20194;-78
2023/03/08 11:24:17;;;;;;;13.43;10.90;;;;;;;14.70;49.72;97836.97;5039719;28;20237;-79
2023/03/08 11:26:54;;;;;;;12.93;11.00;;;;;;;14.73;50.06;97824.81;5036117;28;20300;-78
2023/03/08 11:29:33;;;;;;;12.13;10.80;;;;;;;14.76;49.35;97810.75;5023702;28;20201;-79
2023/03/08 11:32:33;;;;;;;13.83;10.00;;;;;;;14.72;49.23;97794.38;5044496;28;20213;-78
2023/03/08 11:35:31;;;;;;;16.10;10.40;;;;;;;14.67;49.25;97782.84;5021179;28;20237;-79
2023/03/08 11:38:11;;;;;;;13.97;9.70;;;;;;;14.92;49.41;97771.72;5029236;28;20244;-78
2023/03/08 11:41:03;;;;;;;11.07;9.70;;;;;;;14.85;49.40;97747.00;5030796;28;20229;-78
2023/03/08 11:43:51;;;;;;;13.47;10.30;;;;;;;14.94;49.84;97746.03;5032673;28;20195;-78
2023/03/08 11:46:24;;;;;;;12.77;10.60;;;;;;;15.07;49.85;97735.63;5032907;28;20194;-78
2023/03/08 11:49:18;;;;;;;14.30;10.63;;;;;;;14.83;50.09;97743.81;5039726;28;20186;-78
2023/03/08 11:52:27;;;;;;;12.87;10.63;;;;;;;14.91;50.03;97732.34;5033374;28;20294;-77
2023/03/08 11:55:09;;;;;;;12.50;10.83;;;;;;;14.78;50.27;97728.50;5039920;28;20202;-78
2023/03/08 11:57:41;;;;;;;17.30;15.40;;;;;;;14.76;50.78;97700.22;5038397;28;20215;-79